sensor_id;sensor_type;location;lat;lon;timestamp;temperature;humidity
27384;DHT22;14851;51.166;4.760;2023-02-01T00:02:28;5.00;99.90
27384;DHT22;14851;51.166;4.760;2023-02-01T00:04:54;5.10;99.90
27384;DHT22;14851;51.166;4.760;2023-02-01T00:07:21;5.10;99.90
27384;DHT22;14851;51.166;4.760;2023-02-01T00:09:50;5.10;99.90
27384;DHT22;14851;51.166;4.760;2023-02-01T00:12:18;5.10;99.90
27384;DHT22;14851;51.166;4.760;2023-02-01T00:14:46;5.10;99.90
27384;DHT22;14851;51.166;4.760;2023-02-01T00:17:14;5.10;99.90
27384;DHT22;14851;51.166;4.760;2023-02-01T00:19:41;5.10;99.90
27384;DHT22;14851;51.166;4.760;2023-02-01T00:22:07;5.00;99.90
27384;DHT22;14851;51.166;4.760;2023-02-01T00:24:34;5.10;99.90
27384;DHT22;14851;51.166;4.760;2023-02-01T00:27:04;5.10;99.90
27384;DHT22;14851;51.166;4.760;2023-02-01T00:29:31;5.10;99.90
27384;DHT22;14851;51.166;4.760;2023-02-01T00:31:57;5.20;99.90
27384;DHT22;14851;51.166;4.760;2023-02-01T00:34:23;5.10;99.90
27384;DHT22;14851;51.166;4.760;2023-02-01T00:36:50;5.20;99.90
27384;DHT22;14851;51.166;4.760;2023-02-01T00:39:16;5.20;99.90
27384;DHT22;14851;51.166;4.760;2023-02-01T00:41:43;5.20;99.90
27384;DHT22;14851;51.166;4.760;2023-02-01T00:44:09;5.20;99.90
27384;DHT22;14851;51.166;4.760;2023-02-01T00:46:36;5.20;99.90
27384;DHT22;14851;51.166;4.760;2023-02-01T00:49:02;5.20;99.90
27384;DHT22;14851;51.166;4.760;2023-02-01T00:51:29;5.20;99.90
27384;DHT22;14851;51.166;4.760;2023-02-01T00:53:56;5.20;99.90
27384;DHT22;14851;51.166;4.760;2023-02-01T00:56:23;5.20;99.90
27384;DHT22;14851;51.166;4.760;2023-02-01T00:58:49;5.20;99.90
27384;DHT22;14851;51.166;4.760;2023-02-01T01:01:19;5.20;99.90
27384;DHT22;14851;51.166;4.760;2023-02-01T01:03:47;5.20;99.90
27384;DHT22;14851;51.166;4.760;2023-02-01T01:06:17;5.20;99.90
27384;DHT22;14851;51.166;4.760;2023-02-01T01:08:43;5.20;99.90
27384;DHT22;14851;51.166;4.760;2023-02-01T01:11:18;5.20;99.90
27384;DHT22;14851;51.166;4.760;2023-02-01T01:13:47;5.20;99.90
27384;DHT22;14851;51.166;4.760;2023-02-01T01:16:14;5.10;99.90
27384;DHT22;14851;51.166;4.760;2023-02-01T01:18:41;5.10;99.90
27384;DHT22;14851;51.166;4.760;2023-02-01T01:21:09;5.10;99.90
27384;DHT22;14851;51.166;4.760;2023-02-01T01:23:36;5.10;99.90
27384;DHT22;14851;51.166;4.760;2023-02-01T01:26:20;5.10;99.90
27384;DHT22;14851;51.166;4.760;2023-02-01T01:28:51;5.10;99.90
27384;DHT22;14851;51.166;4.760;2023-02-01T01:31:20;5.10;99.90
27384;DHT22;14851;51.166;4.760;2023-02-01T01:33:54;5.10;99.90
27384;DHT22;14851;51.166;4.760;2023-02-01T01:36:20;5.10;99.90
27384;DHT22;14851;51.166;4.760;2023-02-01T01:38:50;5.00;99.90
27384;DHT22;14851;51.166;4.760;2023-02-01T01:41:19;5.00;99.90
27384;DHT22;14851;51.166;4.760;2023-02-01T01:43:55;5.00;99.90
27384;DHT22;14851;51.166;4.760;2023-02-01T01:46:37;5.00;99.90
27384;DHT22;14851;51.166;4.760;2023-02-01T01:49:14;5.00;99.90
27384;DHT22;14851;51.166;4.760;2023-02-01T01:52:02;5.00;99.90
27384;DHT22;14851;51.166;4.760;2023-02-01T01:54:29;5.00;99.90
27384;DHT22;14851;51.166;4.760;2023-02-01T01:57:01;5.00;99.90
27384;DHT22;14851;51.166;4.760;2023-02-01T01:59:32;5.00;99.90
27384;DHT22;14851;51.166;4.760;2023-02-01T02:02:02;5.00;99.90
27384;DHT22;14851;51.166;4.760;2023-02-01T02:04:27;5.00;99.90
27384;DHT22;14851;51.166;4.760;2023-02-01T02:07:05;4.90;99.90
27384;DHT22;14851;51.166;4.760;2023-02-01T02:09:35;4.90;99.90
27384;DHT22;14851;51.166;4.760;2023-02-01T02:12:01;4.90;99.90
27384;DHT22;14851;51.166;4.760;2023-02-01T02:14:28;4.90;99.90
27384;DHT22;14851;51.166;4.760;2023-02-01T02:50:46;4.70;99.90
27384;DHT22;14851;51.166;4.760;2023-02-01T02:53:48;4.70;99.90
27384;DHT22;14851;51.166;4.760;2023-02-01T02:56:37;4.70;99.90
27384;DHT22;14851;51.166;4.760;2023-02-01T02:59:24;4.70;99.90
27384;DHT22;14851;51.166;4.760;2023-02-01T03:02:10;4.70;99.90
27384;DHT22;14851;51.166;4.760;2023-02-01T03:04:56;4.70;99.90
27384;DHT22;14851;51.166;4.760;2023-02-01T03:12:53;4.70;99.90
27384;DHT22;14851;51.166;4.760;2023-02-01T03:15:36;4.70;99.90
27384;DHT22;14851;51.166;4.760;2023-02-01T03:18:10;4.70;99.90
27384;DHT22;14851;51.166;4.760;2023-02-01T03:20:40;4.70;99.90
27384;DHT22;14851;51.166;4.760;2023-02-01T03:23:06;4.70;99.90
27384;DHT22;14851;51.166;4.760;2023-02-01T03:25:34;4.70;99.90
27384;DHT22;14851;51.166;4.760;2023-02-01T03:28:06;4.70;99.90
27384;DHT22;14851;51.166;4.760;2023-02-01T03:30:40;4.70;99.90
27384;DHT22;14851;51.166;4.760;2023-02-01T03:33:17;4.70;99.90
27384;DHT22;14851;51.166;4.760;2023-02-01T03:44:09;4.70;99.90
27384;DHT22;14851;51.166;4.760;2023-02-01T03:49:46;4.80;99.90
27384;DHT22;14851;51.166;4.760;2023-02-01T03:52:32;4.90;99.90
27384;DHT22;14851;51.166;4.760;2023-02-01T03:55:04;4.90;99.90
27384;DHT22;14851;51.166;4.760;2023-02-01T03:57:40;4.80;99.90
27384;DHT22;14851;51.166;4.760;2023-02-01T04:00:20;4.90;99.90
27384;DHT22;14851;51.166;4.760;2023-02-01T04:02:50;4.90;99.90
27384;DHT22;14851;51.166;4.760;2023-02-01T04:05:16;4.90;99.90
27384;DHT22;14851;51.166;4.760;2023-02-01T04:07:51;4.90;99.90
27384;DHT22;14851;51.166;4.760;2023-02-01T04:10:18;4.90;99.90
27384;DHT22;14851;51.166;4.760;2023-02-01T04:12:44;4.80;99.90
27384;DHT22;14851;51.166;4.760;2023-02-01T04:15:11;4.80;99.90
27384;DHT22;14851;51.166;4.760;2023-02-01T04:17:37;4.70;99.90
27384;DHT22;14851;51.166;4.760;2023-02-01T04:20:04;4.70;99.90
27384;DHT22;14851;51.166;4.760;2023-02-01T04:22:30;4.70;99.90
27384;DHT22;14851;51.166;4.760;2023-02-01T04:24:56;4.60;99.90
27384;DHT22;14851;51.166;4.760;2023-02-01T04:27:25;4.60;99.90
27384;DHT22;14851;51.166;4.760;2023-02-01T04:29:53;4.60;99.90
27384;DHT22;14851;51.166;4.760;2023-02-01T04:32:19;4.60;99.90
27384;DHT22;14851;51.166;4.760;2023-02-01T04:34:48;4.60;99.90
27384;DHT22;14851;51.166;4.760;2023-02-01T04:37:17;4.60;99.90
27384;DHT22;14851;51.166;4.760;2023-02-01T04:39:45;4.70;99.90
27384;DHT22;14851;51.166;4.760;2023-02-01T04:42:13;4.60;99.90
27384;DHT22;14851;51.166;4.760;2023-02-01T04:44:41;4.60;99.90
27384;DHT22;14851;51.166;4.760;2023-02-01T04:47:08;4.70;99.90
27384;DHT22;14851;51.166;4.760;2023-02-01T04:49:35;4.60;99.90
27384;DHT22;14851;51.166;4.760;2023-02-01T04:52:01;4.60;99.90
27384;DHT22;14851;51.166;4.760;2023-02-01T04:54:27;4.60;99.90
27384;DHT22;14851;51.166;4.760;2023-02-01T04:56:53;4.60;99.90
27384;DHT22;14851;51.166;4.760;2023-02-01T04:59:20;4.60;99.90
27384;DHT22;14851;51.166;4.760;2023-02-01T05:01:46;4.60;99.90
27384;DHT22;14851;51.166;4.760;2023-02-01T05:04:12;4.60;99.90
27384;DHT22;14851;51.166;4.760;2023-02-01T05:06:39;4.60;99.90
27384;DHT22;14851;51.166;4.760;2023-02-01T05:09:05;4.70;99.90
27384;DHT22;14851;51.166;4.760;2023-02-01T05:11:31;4.80;99.90
27384;DHT22;14851;51.166;4.760;2023-02-01T05:14:20;4.80;99.90
27384;DHT22;14851;51.166;4.760;2023-02-01T05:16:46;4.90;99.90
27384;DHT22;14851;51.166;4.760;2023-02-01T05:19:13;4.80;99.90
27384;DHT22;14851;51.166;4.760;2023-02-01T05:21:43;4.90;99.90
27384;DHT22;14851;51.166;4.760;2023-02-01T05:24:09;4.90;99.90
27384;DHT22;14851;51.166;4.760;2023-02-01T05:26:37;4.80;99.90
27384;DHT22;14851;51.166;4.760;2023-02-01T05:29:07;4.80;99.90
27384;DHT22;14851;51.166;4.760;2023-02-01T05:31:36;4.80;99.90
27384;DHT22;14851;51.166;4.760;2023-02-01T05:34:06;4.80;99.90
27384;DHT22;14851;51.166;4.760;2023-02-01T05:36:33;4.80;99.90
27384;DHT22;14851;51.166;4.760;2023-02-01T05:38:59;4.80;99.90
27384;DHT22;14851;51.166;4.760;2023-02-01T05:41:30;4.80;99.90
27384;DHT22;14851;51.166;4.760;2023-02-01T05:43:57;4.70;99.90
27384;DHT22;14851;51.166;4.760;2023-02-01T05:46:23;4.70;99.90
27384;DHT22;14851;51.166;4.760;2023-02-01T05:48:50;4.70;99.90
27384;DHT22;14851;51.166;4.760;2023-02-01T05:51:17;4.70;99.90
27384;DHT22;14851;51.166;4.760;2023-02-01T05:53:46;4.70;99.90
27384;DHT22;14851;51.166;4.760;2023-02-01T05:56:12;4.70;99.90
27384;DHT22;14851;51.166;4.760;2023-02-01T05:58:39;4.80;99.90
27384;DHT22;14851;51.166;4.760;2023-02-01T06:01:07;4.80;99.90
27384;DHT22;14851;51.166;4.760;2023-02-01T06:03:34;4.80;99.90
27384;DHT22;14851;51.166;4.760;2023-02-01T06:06:02;4.90;99.90
27384;DHT22;14851;51.166;4.760;2023-02-01T06:08:30;4.90;99.90
27384;DHT22;14851;51.166;4.760;2023-02-01T06:11:01;4.90;99.90
27384;DHT22;14851;51.166;4.760;2023-02-01T06:13:30;4.90;99.90
27384;DHT22;14851;51.166;4.760;2023-02-01T06:15:56;4.90;99.90
27384;DHT22;14851;51.166;4.760;2023-02-01T06:18:24;4.90;99.90
27384;DHT22;14851;51.166;4.760;2023-02-01T06:20:57;4.90;99.90
27384;DHT22;14851;51.166;4.760;2023-02-01T06:23:25;4.90;99.90
27384;DHT22;14851;51.166;4.760;2023-02-01T06:26:06;4.90;99.90
27384;DHT22;14851;51.166;4.760;2023-02-01T06:28:35;4.90;99.90
27384;DHT22;14851;51.166;4.760;2023-02-01T06:31:06;4.80;99.90
27384;DHT22;14851;51.166;4.760;2023-02-01T06:33:36;4.90;99.90
27384;DHT22;14851;51.166;4.760;2023-02-01T06:36:05;4.90;99.90
27384;DHT22;14851;51.166;4.760;2023-02-01T06:38:32;4.80;99.90
27384;DHT22;14851;51.166;4.760;2023-02-01T06:41:00;4.80;99.90
27384;DHT22;14851;51.166;4.760;2023-02-01T06:43:28;4.80;99.90
27384;DHT22;14851;51.166;4.760;2023-02-01T06:46:01;4.80;99.90
27384;DHT22;14851;51.166;4.760;2023-02-01T06:48:31;4.80;99.90
27384;DHT22;14851;51.166;4.760;2023-02-01T06:50:57;4.70;99.90
27384;DHT22;14851;51.166;4.760;2023-02-01T06:53:23;4.70;99.90
27384;DHT22;14851;51.166;4.760;2023-02-01T06:56:00;4.70;99.90
27384;DHT22;14851;51.166;4.760;2023-02-01T06:58:33;4.70;99.90
27384;DHT22;14851;51.166;4.760;2023-02-01T07:01:10;4.70;99.90
27384;DHT22;14851;51.166;4.760;2023-02-01T07:03:37;4.70;99.90
27384;DHT22;14851;51.166;4.760;2023-02-01T07:06:06;4.70;99.90
27384;DHT22;14851;51.166;4.760;2023-02-01T07:08:35;4.70;99.90
27384;DHT22;14851;51.166;4.760;2023-02-01T07:11:03;4.60;99.90
27384;DHT22;14851;51.166;4.760;2023-02-01T07:13:30;4.60;99.90
27384;DHT22;14851;51.166;4.760;2023-02-01T07:16:04;4.50;99.90
27384;DHT22;14851;51.166;4.760;2023-02-01T07:18:31;4.50;99.90
27384;DHT22;14851;51.166;4.760;2023-02-01T07:20:59;4.60;99.90
27384;DHT22;14851;51.166;4.760;2023-02-01T07:23:27;4.70;99.90
27384;DHT22;14851;51.166;4.760;2023-02-01T07:25:55;4.70;99.90
27384;DHT22;14851;51.166;4.760;2023-02-01T07:28:22;4.60;99.90
27384;DHT22;14851;51.166;4.760;2023-02-01T07:30:51;4.70;99.90
27384;DHT22;14851;51.166;4.760;2023-02-01T07:33:20;4.70;99.90
27384;DHT22;14851;51.166;4.760;2023-02-01T07:35:47;4.70;99.90
27384;DHT22;14851;51.166;4.760;2023-02-01T07:38:14;4.70;99.90
27384;DHT22;14851;51.166;4.760;2023-02-01T07:40:40;4.60;99.90
27384;DHT22;14851;51.166;4.760;2023-02-01T07:43:09;4.70;99.90
27384;DHT22;14851;51.166;4.760;2023-02-01T07:45:36;4.70;99.90
27384;DHT22;14851;51.166;4.760;2023-02-01T07:48:03;4.70;99.90
27384;DHT22;14851;51.166;4.760;2023-02-01T07:50:30;4.80;99.90
27384;DHT22;14851;51.166;4.760;2023-02-01T07:52:59;4.70;99.90
27384;DHT22;14851;51.166;4.760;2023-02-01T07:55:27;4.70;99.90
27384;DHT22;14851;51.166;4.760;2023-02-01T07:57:57;4.70;99.90
27384;DHT22;14851;51.166;4.760;2023-02-01T08:00:24;4.70;99.90
27384;DHT22;14851;51.166;4.760;2023-02-01T08:03:22;4.80;99.90
27384;DHT22;14851;51.166;4.760;2023-02-01T08:05:47;4.80;99.90
27384;DHT22;14851;51.166;4.760;2023-02-01T08:08:13;4.80;99.90
27384;DHT22;14851;51.166;4.760;2023-02-01T08:10:39;4.80;99.90
27384;DHT22;14851;51.166;4.760;2023-02-01T08:13:06;4.80;99.90
27384;DHT22;14851;51.166;4.760;2023-02-01T08:15:32;4.90;99.90
27384;DHT22;14851;51.166;4.760;2023-02-01T08:17:58;4.90;99.90
27384;DHT22;14851;51.166;4.760;2023-02-01T08:20:25;4.90;99.90
27384;DHT22;14851;51.166;4.760;2023-02-01T08:22:54;4.90;99.90
27384;DHT22;14851;51.166;4.760;2023-02-01T08:25:20;4.90;99.90
27384;DHT22;14851;51.166;4.760;2023-02-01T08:27:47;5.00;99.90
27384;DHT22;14851;51.166;4.760;2023-02-01T08:30:14;5.10;99.90
27384;DHT22;14851;51.166;4.760;2023-02-01T08:32:40;5.10;99.90
27384;DHT22;14851;51.166;4.760;2023-02-01T08:35:07;5.10;99.90
27384;DHT22;14851;51.166;4.760;2023-02-01T08:37:34;5.10;99.90
27384;DHT22;14851;51.166;4.760;2023-02-01T08:40:00;5.10;99.90
27384;DHT22;14851;51.166;4.760;2023-02-01T08:42:26;5.10;99.90
27384;DHT22;14851;51.166;4.760;2023-02-01T08:45:11;5.10;99.90
27384;DHT22;14851;51.166;4.760;2023-02-01T08:47:38;5.10;99.90
27384;DHT22;14851;51.166;4.760;2023-02-01T08:50:05;5.10;99.90
27384;DHT22;14851;51.166;4.760;2023-02-01T08:52:31;5.10;99.90
27384;DHT22;14851;51.166;4.760;2023-02-01T08:54:57;5.20;99.90
27384;DHT22;14851;51.166;4.760;2023-02-01T08:57:26;5.20;99.90
27384;DHT22;14851;51.166;4.760;2023-02-01T08:59:52;5.20;99.90
27384;DHT22;14851;51.166;4.760;2023-02-01T09:02:19;5.30;99.90
27384;DHT22;14851;51.166;4.760;2023-02-01T09:04:47;5.30;99.90
27384;DHT22;14851;51.166;4.760;2023-02-01T09:07:14;5.30;99.90
27384;DHT22;14851;51.166;4.760;2023-02-01T09:09:41;5.30;99.90
27384;DHT22;14851;51.166;4.760;2023-02-01T09:12:07;5.30;99.90
27384;DHT22;14851;51.166;4.760;2023-02-01T09:14:34;5.40;99.90
27384;DHT22;14851;51.166;4.760;2023-02-01T09:17:01;5.40;99.90
27384;DHT22;14851;51.166;4.760;2023-02-01T09:19:27;5.40;99.90
27384;DHT22;14851;51.166;4.760;2023-02-01T09:21:54;5.40;99.90
27384;DHT22;14851;51.166;4.760;2023-02-01T09:24:20;5.40;99.90
27384;DHT22;14851;51.166;4.760;2023-02-01T09:26:49;5.50;99.90
27384;DHT22;14851;51.166;4.760;2023-02-01T09:29:15;5.50;99.90
27384;DHT22;14851;51.166;4.760;2023-02-01T09:31:41;5.50;99.90
27384;DHT22;14851;51.166;4.760;2023-02-01T09:34:10;5.50;99.90
27384;DHT22;14851;51.166;4.760;2023-02-01T09:36:36;5.50;99.90
27384;DHT22;14851;51.166;4.760;2023-02-01T09:39:05;5.50;99.90
27384;DHT22;14851;51.166;4.760;2023-02-01T09:44:54;5.60;99.90
27384;DHT22;14851;51.166;4.760;2023-02-01T09:47:26;5.60;99.90
27384;DHT22;14851;51.166;4.760;2023-02-01T09:50:21;5.60;99.90
27384;DHT22;14851;51.166;4.760;2023-02-01T09:52:59;5.70;99.90
27384;DHT22;14851;51.166;4.760;2023-02-01T09:55:48;5.80;99.90
27384;DHT22;14851;51.166;4.760;2023-02-01T09:58:20;5.90;99.90
27384;DHT22;14851;51.166;4.760;2023-02-01T10:00:56;6.00;99.90
27384;DHT22;14851;51.166;4.760;2023-02-01T10:03:32;6.00;99.90
27384;DHT22;14851;51.166;4.760;2023-02-01T10:14:59;6.20;99.90
27384;DHT22;14851;51.166;4.760;2023-02-01T10:20:23;6.30;99.90
27384;DHT22;14851;51.166;4.760;2023-02-01T10:25:56;6.50;99.90
27384;DHT22;14851;51.166;4.760;2023-02-01T10:28:25;6.60;99.90
27384;DHT22;14851;51.166;4.760;2023-02-01T10:30:58;6.60;99.90
27384;DHT22;14851;51.166;4.760;2023-02-01T10:33:33;6.70;99.90
27384;DHT22;14851;51.166;4.760;2023-02-01T10:36:25;6.70;99.90
27384;DHT22;14851;51.166;4.760;2023-02-01T10:38:57;6.80;99.90
27384;DHT22;14851;51.166;4.760;2023-02-01T10:41:26;6.80;99.90
27384;DHT22;14851;51.166;4.760;2023-02-01T10:43:57;6.80;99.90
27384;DHT22;14851;51.166;4.760;2023-02-01T10:46:24;6.70;99.90
27384;DHT22;14851;51.166;4.760;2023-02-01T10:48:53;6.60;99.90
27384;DHT22;14851;51.166;4.760;2023-02-01T10:51:25;6.70;99.90
27384;DHT22;14851;51.166;4.760;2023-02-01T10:54:01;6.70;99.90
27384;DHT22;14851;51.166;4.760;2023-02-01T10:56:32;6.70;99.90
27384;DHT22;14851;51.166;4.760;2023-02-01T10:59:04;6.80;99.90
27384;DHT22;14851;51.166;4.760;2023-02-01T11:01:43;6.80;99.90
27384;DHT22;14851;51.166;4.760;2023-02-01T11:04:15;7.00;99.90
27384;DHT22;14851;51.166;4.760;2023-02-01T11:06:43;7.10;99.90
27384;DHT22;14851;51.166;4.760;2023-02-01T11:09:23;7.20;99.90
27384;DHT22;14851;51.166;4.760;2023-02-01T11:11:54;7.30;99.90
27384;DHT22;14851;51.166;4.760;2023-02-01T11:17:02;7.40;99.90
27384;DHT22;14851;51.166;4.760;2023-02-01T11:19:28;7.40;99.90
27384;DHT22;14851;51.166;4.760;2023-02-01T11:21:57;7.50;99.90
27384;DHT22;14851;51.166;4.760;2023-02-01T11:24:35;7.40;99.90
27384;DHT22;14851;51.166;4.760;2023-02-01T11:27:12;7.50;99.90
27384;DHT22;14851;51.166;4.760;2023-02-01T11:29:43;7.40;99.90
27384;DHT22;14851;51.166;4.760;2023-02-01T11:32:12;7.50;99.90
27384;DHT22;14851;51.166;4.760;2023-02-01T11:37:41;7.60;99.90
27384;DHT22;14851;51.166;4.760;2023-02-01T11:43:15;7.70;99.90
27384;DHT22;14851;51.166;4.760;2023-02-01T11:45:54;7.70;99.90
27384;DHT22;14851;51.166;4.760;2023-02-01T11:48:24;7.70;99.90
27384;DHT22;14851;51.166;4.760;2023-02-01T11:56:36;7.90;99.90
27384;DHT22;14851;51.166;4.760;2023-02-01T12:00:04;7.90;99.90
27384;DHT22;14851;51.166;4.760;2023-02-01T12:16:44;8.10;99.90
27384;DHT22;14851;51.166;4.760;2023-02-01T12:22:12;8.10;99.90
27384;DHT22;14851;51.166;4.760;2023-02-01T12:28:00;8.20;99.90
27384;DHT22;14851;51.166;4.760;2023-02-01T12:33:27;8.20;99.90
27384;DHT22;14851;51.166;4.760;2023-02-01T12:36:10;8.20;99.90
27384;DHT22;14851;51.166;4.760;2023-02-01T12:41:53;8.20;99.90
27384;DHT22;14851;51.166;4.760;2023-02-01T12:44:45;8.20;99.90
27384;DHT22;14851;51.166;4.760;2023-02-01T12:47:35;8.30;99.90
27384;DHT22;14851;51.166;4.760;2023-02-01T12:50:12;8.30;99.90
27384;DHT22;14851;51.166;4.760;2023-02-01T12:52:48;8.30;99.90
27384;DHT22;14851;51.166;4.760;2023-02-01T12:55:23;8.30;99.90
27384;DHT22;14851;51.166;4.760;2023-02-01T12:57:57;8.30;99.90
27384;DHT22;14851;51.166;4.760;2023-02-01T13:00:38;8.40;99.90
27384;DHT22;14851;51.166;4.760;2023-02-01T13:03:11;8.30;99.90
27384;DHT22;14851;51.166;4.760;2023-02-01T13:06:13;8.30;99.90
27384;DHT22;14851;51.166;4.760;2023-02-01T13:08:57;8.30;99.90
27384;DHT22;14851;51.166;4.760;2023-02-01T13:11:31;8.40;99.90
27384;DHT22;14851;51.166;4.760;2023-02-01T13:16:50;8.40;99.90
27384;DHT22;14851;51.166;4.760;2023-02-01T13:20:03;8.40;99.90
27384;DHT22;14851;51.166;4.760;2023-02-01T13:22:34;8.50;99.90
27384;DHT22;14851;51.166;4.760;2023-02-01T13:28:30;8.50;99.90
27384;DHT22;14851;51.166;4.760;2023-02-01T13:31:27;8.50;99.90
27384;DHT22;14851;51.166;4.760;2023-02-01T13:34:52;8.50;99.90
27384;DHT22;14851;51.166;4.760;2023-02-01T13:37:31;8.50;99.90
27384;DHT22;14851;51.166;4.760;2023-02-01T13:42:58;8.50;99.90
27384;DHT22;14851;51.166;4.760;2023-02-01T13:45:29;8.60;99.90
27384;DHT22;14851;51.166;4.760;2023-02-01T13:47:58;8.50;99.90
27384;DHT22;14851;51.166;4.760;2023-02-01T13:53:00;8.50;99.90
27384;DHT22;14851;51.166;4.760;2023-02-01T13:55:41;8.50;99.90
27384;DHT22;14851;51.166;4.760;2023-02-01T13:58:22;8.50;99.90
27384;DHT22;14851;51.166;4.760;2023-02-01T14:00:50;8.50;99.90
27384;DHT22;14851;51.166;4.760;2023-02-01T14:03:22;8.50;99.90
27384;DHT22;14851;51.166;4.760;2023-02-01T14:08:39;8.50;99.90
27384;DHT22;14851;51.166;4.760;2023-02-01T14:11:05;8.50;99.90
27384;DHT22;14851;51.166;4.760;2023-02-01T14:13:39;8.50;99.90
27384;DHT22;14851;51.166;4.760;2023-02-01T14:16:17;8.50;99.90
27384;DHT22;14851;51.166;4.760;2023-02-01T14:21:31;8.50;99.90
27384;DHT22;14851;51.166;4.760;2023-02-01T14:29:39;8.50;99.90
27384;DHT22;14851;51.166;4.760;2023-02-01T14:32:31;8.50;99.90
27384;DHT22;14851;51.166;4.760;2023-02-01T14:35:06;8.50;99.90
27384;DHT22;14851;51.166;4.760;2023-02-01T14:37:35;8.50;99.90
27384;DHT22;14851;51.166;4.760;2023-02-01T14:42:46;8.60;99.90
27384;DHT22;14851;51.166;4.760;2023-02-01T15:01:04;8.70;99.90
27384;DHT22;14851;51.166;4.760;2023-02-01T15:09:07;8.60;99.90
27384;DHT22;14851;51.166;4.760;2023-02-01T15:14:26;8.60;99.90
27384;DHT22;14851;51.166;4.760;2023-02-01T15:16:54;8.60;99.90
27384;DHT22;14851;51.166;4.760;2023-02-01T15:19:26;8.60;99.90
27384;DHT22;14851;51.166;4.760;2023-02-01T15:21:56;8.60;99.90
27384;DHT22;14851;51.166;4.760;2023-02-01T15:24:30;8.60;99.90
27384;DHT22;14851;51.166;4.760;2023-02-01T15:27:04;8.60;99.90
27384;DHT22;14851;51.166;4.760;2023-02-01T15:29:32;8.60;99.90
27384;DHT22;14851;51.166;4.760;2023-02-01T15:31:59;8.60;99.90
27384;DHT22;14851;51.166;4.760;2023-02-01T15:34:48;8.60;99.90
27384;DHT22;14851;51.166;4.760;2023-02-01T15:37:15;8.60;99.90
27384;DHT22;14851;51.166;4.760;2023-02-01T15:42:56;8.50;99.90
27384;DHT22;14851;51.166;4.760;2023-02-01T15:45:26;8.50;99.90
27384;DHT22;14851;51.166;4.760;2023-02-01T15:47:55;8.50;99.90
27384;DHT22;14851;51.166;4.760;2023-02-01T15:50:22;8.50;99.90
27384;DHT22;14851;51.166;4.760;2023-02-01T15:52:52;8.40;99.90
27384;DHT22;14851;51.166;4.760;2023-02-01T15:55:39;8.50;99.90
27384;DHT22;14851;51.166;4.760;2023-02-01T15:58:21;8.50;99.90
27384;DHT22;14851;51.166;4.760;2023-02-01T16:00:53;8.50;99.90
27384;DHT22;14851;51.166;4.760;2023-02-01T16:03:39;8.40;99.90
27384;DHT22;14851;51.166;4.760;2023-02-01T16:06:25;8.40;99.90
27384;DHT22;14851;51.166;4.760;2023-02-01T16:13:57;8.50;99.90
27384;DHT22;14851;51.166;4.760;2023-02-01T16:16:27;8.40;99.90
27384;DHT22;14851;51.166;4.760;2023-02-01T16:18:53;8.40;99.90
27384;DHT22;14851;51.166;4.760;2023-02-01T16:21:20;8.40;99.90
27384;DHT22;14851;51.166;4.760;2023-02-01T16:23:53;8.40;99.90
27384;DHT22;14851;51.166;4.760;2023-02-01T16:26:20;8.40;99.90
27384;DHT22;14851;51.166;4.760;2023-02-01T16:28:47;8.40;99.90
27384;DHT22;14851;51.166;4.760;2023-02-01T16:31:18;8.40;99.90
27384;DHT22;14851;51.166;4.760;2023-02-01T16:33:49;8.40;99.90
27384;DHT22;14851;51.166;4.760;2023-02-01T16:36:17;8.40;99.90
27384;DHT22;14851;51.166;4.760;2023-02-01T16:38:45;8.40;99.90
27384;DHT22;14851;51.166;4.760;2023-02-01T16:41:15;8.40;99.90
27384;DHT22;14851;51.166;4.760;2023-02-01T16:43:45;8.40;99.90
27384;DHT22;14851;51.166;4.760;2023-02-01T16:46:15;8.40;99.90
27384;DHT22;14851;51.166;4.760;2023-02-01T16:48:46;8.40;99.90
27384;DHT22;14851;51.166;4.760;2023-02-01T16:51:15;8.40;99.90
27384;DHT22;14851;51.166;4.760;2023-02-01T16:53:43;8.40;99.90
27384;DHT22;14851;51.166;4.760;2023-02-01T16:58:41;8.40;99.90
27384;DHT22;14851;51.166;4.760;2023-02-01T17:01:13;8.40;99.90
27384;DHT22;14851;51.166;4.760;2023-02-01T17:03:40;8.30;99.90
27384;DHT22;14851;51.166;4.760;2023-02-01T17:06:16;8.30;99.90
27384;DHT22;14851;51.166;4.760;2023-02-01T17:08:46;8.30;99.90
27384;DHT22;14851;51.166;4.760;2023-02-01T17:11:17;8.30;99.90
27384;DHT22;14851;51.166;4.760;2023-02-01T17:13:44;8.30;99.90
27384;DHT22;14851;51.166;4.760;2023-02-01T17:16:31;8.20;99.90
27384;DHT22;14851;51.166;4.760;2023-02-01T17:19:08;8.30;99.90
27384;DHT22;14851;51.166;4.760;2023-02-01T17:21:42;8.30;99.90
27384;DHT22;14851;51.166;4.760;2023-02-01T17:24:12;8.30;99.90
27384;DHT22;14851;51.166;4.760;2023-02-01T17:26:40;8.30;99.90
27384;DHT22;14851;51.166;4.760;2023-02-01T17:29:08;8.30;99.90
27384;DHT22;14851;51.166;4.760;2023-02-01T17:31:40;8.30;99.90
27384;DHT22;14851;51.166;4.760;2023-02-01T17:34:10;8.30;99.90
27384;DHT22;14851;51.166;4.760;2023-02-01T17:36:37;8.30;99.90
27384;DHT22;14851;51.166;4.760;2023-02-01T17:39:05;8.30;99.90
27384;DHT22;14851;51.166;4.760;2023-02-01T17:41:31;8.30;99.90
27384;DHT22;14851;51.166;4.760;2023-02-01T17:43:58;8.30;99.90
27384;DHT22;14851;51.166;4.760;2023-02-01T17:46:27;8.30;99.90
27384;DHT22;14851;51.166;4.760;2023-02-01T17:48:53;8.30;99.90
27384;DHT22;14851;51.166;4.760;2023-02-01T17:51:22;8.30;99.90
27384;DHT22;14851;51.166;4.760;2023-02-01T17:53:49;8.40;99.90
27384;DHT22;14851;51.166;4.760;2023-02-01T17:56:22;8.40;99.90
27384;DHT22;14851;51.166;4.760;2023-02-01T17:58:49;8.50;99.90
27384;DHT22;14851;51.166;4.760;2023-02-01T18:01:26;8.50;99.90
27384;DHT22;14851;51.166;4.760;2023-02-01T18:03:52;8.50;99.90
27384;DHT22;14851;51.166;4.760;2023-02-01T18:06:24;8.50;99.90
27384;DHT22;14851;51.166;4.760;2023-02-01T18:08:55;8.50;99.90
27384;DHT22;14851;51.166;4.760;2023-02-01T18:11:24;8.50;99.90
27384;DHT22;14851;51.166;4.760;2023-02-01T18:13:52;8.50;99.90
27384;DHT22;14851;51.166;4.760;2023-02-01T18:16:31;8.40;99.90
27384;DHT22;14851;51.166;4.760;2023-02-01T18:19:05;8.40;99.90
27384;DHT22;14851;51.166;4.760;2023-02-01T18:21:34;8.50;99.90
27384;DHT22;14851;51.166;4.760;2023-02-01T18:24:01;8.50;99.90
27384;DHT22;14851;51.166;4.760;2023-02-01T18:26:27;8.60;99.90
27384;DHT22;14851;51.166;4.760;2023-02-01T18:28:55;8.60;99.90
27384;DHT22;14851;51.166;4.760;2023-02-01T18:31:25;8.50;99.90
27384;DHT22;14851;51.166;4.760;2023-02-01T18:33:53;8.50;99.90
27384;DHT22;14851;51.166;4.760;2023-02-01T18:36:20;8.50;99.90
27384;DHT22;14851;51.166;4.760;2023-02-01T18:38:46;8.50;99.90
27384;DHT22;14851;51.166;4.760;2023-02-01T18:41:14;8.50;99.90
27384;DHT22;14851;51.166;4.760;2023-02-01T18:43:42;8.50;99.90
27384;DHT22;14851;51.166;4.760;2023-02-01T18:46:09;8.50;99.90
27384;DHT22;14851;51.166;4.760;2023-02-01T18:48:41;8.40;99.90
27384;DHT22;14851;51.166;4.760;2023-02-01T18:51:12;8.30;99.90
27384;DHT22;14851;51.166;4.760;2023-02-01T18:53:39;8.30;99.90
27384;DHT22;14851;51.166;4.760;2023-02-01T18:56:05;8.40;99.90
27384;DHT22;14851;51.166;4.760;2023-02-01T18:58:35;8.40;99.90
27384;DHT22;14851;51.166;4.760;2023-02-01T19:01:06;8.40;99.90